Aeroporto :
LOGIN :

Iscrizione | Disclaimer

   EN    FR    IT 

 










Sommario :    VFR   VFR Marginale   IFR   IFR Intensivo   IFR Molto Intensivo
Visibilità : 
Base nubi : 
>= 8 km
>= 3000ft
5 / 8 km
1000 / 3000 ft
1500m / 5 km
500 / 1000 ft
800 / 1500m
200 / 500 ft
< 800m
< 200 ft
Simboli :   Temporali  Nebbia  Neve Forte  Precipitazioni Forti  Vento > 20 kt
SIGMETs :   Varie  Temporali  Ghiacco  Turbolenza  Onda orograficha  Ceneri Vulcaniche







- Altitudine del aeroporto : 74 ft
- Codice IATA : EIN


EHEH - Eindhoven

ULTIMO METAR :
  • 232240Z AUTO 01008KT 9999 FEW018 BKN023 BKN046 06/04 Q1031 WHT

METARs OBSOLETI :
  • 232225Z AUTO 01008KT 9999 BKN023 OVC044 07/04 Q1031 WHT
  • 232155Z AUTO 01007KT 340V050 9999 OVC044 07/04 Q1031 BLU 36010KT 9999 BKN025
  • 232125Z AUTO 01007KT 340V050 9999 OVC022 08/05 Q1031 WHT 36010KT 9999 BKN025
  • 232113Z AUTO 01008KT 340V040 9999 SCT024 OVC039 08/05 Q1031 WHT 36010KT 9999 BKN025
  • 232058Z AUTO 01009KT 330V060 9999 FEW021 OVC040 08/05 Q1031 BLU 36010KT 9999 BKN025
  • 232055Z AUTO 01009KT 340V060 9999 SCT021 SCT029 OVC038 08/05 Q1031 WHT 36010KT 9999 BKN025
  • 232043Z AUTO 02009KT 340V040 9999 FEW021 BKN025 OVC029 08/05 Q1031 BLU 36010KT 9999 BKN025
  • 232025Z AUTO 01011KT 340V040 9999 OVC020 09/05 Q1031 WHT 36010KT 9999 BKN025
  • 232012Z AUTO 01009KT 340V050 9999 FEW019 OVC039 09/06 Q1031 BLU 36007KT 9999 BKN035
  • 232005Z AUTO 01009KT 340V050 9999 SCT019 OVC039 09/06 Q1031 WHT 36007KT 9999 BKN035
  • 231955Z AUTO 01009KT 350V050 9999 SCT020 BKN023 OVC040 09/06 Q1031 WHT 36007KT 9999 BKN035

TAF TAF EHEH
Valido dal 23 a 18 ore il 25 a 00 ore UTC


231743Z 2318/2424 02005KT SCT025 BKN040
PROB40 2402/2407 4000 BR
BECMG 2417/2420 25005KT
Nessun NOTAM noto per questo aeroporto.



MetMap, La meteo Aeronautica in un colpo d'occhio ! - Copyright ORBIFLY Dicembre 2007 - Disclaimer

ORBIFLY MET'MAP TEAM :

Programmazione e sviluppo : Alexandra Zaïnal
Concezione e sviluppo : Baudouin d'Aumeries
Co-Programmazione e sviluppo : Marc-Olivier Méhu
Supporto tecnico e logistico : Manuel Goepfert
Aiuto per la traduzione : Arnaldo La Scala

Contatto : metmap@orbifly.com




FONTI E CREDITI :

   NOAA